createdAt,value
2023-02-09T00:00:05.915Z,16.60
2023-02-09T00:02:40.900Z,15.75
2023-02-09T00:05:08.832Z,16.08
2023-02-09T00:07:36.122Z,16.10
2023-02-09T00:10:04.332Z,14.50
2023-02-09T00:12:49.851Z,15.52
2023-02-09T00:15:16.702Z,14.45
2023-02-09T00:17:43.551Z,14.32
2023-02-09T00:20:10.887Z,14.57
2023-02-09T00:22:37.740Z,14.18
2023-02-09T00:25:04.785Z,13.68
2023-02-09T00:27:35.368Z,13.98
2023-02-09T00:30:04.317Z,14.65
2023-02-09T00:32:33.111Z,13.30
2023-02-09T00:35:00.211Z,13.88
2023-02-09T00:37:28.281Z,13.25
2023-02-09T00:39:55.160Z,13.98
2023-02-09T00:42:22.049Z,14.07
2023-02-09T00:44:49.989Z,12.45
2023-02-09T00:47:17.468Z,13.77
2023-02-09T00:49:44.812Z,12.75
2023-02-09T00:52:11.802Z,13.73
2023-02-09T00:54:39.291Z,13.55
2023-02-09T00:57:06.210Z,13.38
2023-02-09T00:59:35.794Z,13.02
2023-02-09T01:02:03.460Z,13.43
2023-02-09T01:04:30.511Z,12.80
2023-02-09T01:06:57.502Z,13.23
2023-02-09T01:09:25.188Z,13.27
2023-02-09T01:11:52.038Z,12.98
2023-02-09T01:14:18.975Z,13.07
2023-02-09T01:16:45.842Z,13.15
2023-02-09T01:19:14.293Z,12.68
2023-02-09T01:21:42.166Z,13.45
2023-02-09T01:24:13.086Z,13.00
2023-02-09T01:26:40.083Z,13.00
2023-02-09T01:29:07.068Z,13.25
2023-02-09T01:31:35.881Z,13.43
2023-02-09T01:34:04.071Z,12.93
2023-02-09T01:36:32.213Z,12.88
2023-02-09T01:39:01.271Z,12.68
2023-02-09T01:41:28.890Z,12.82
2023-02-09T01:44:04.917Z,12.88
2023-02-09T01:46:34.493Z,12.80
2023-02-09T01:49:22.151Z,11.82
2023-02-09T01:51:59.934Z,13.48
2023-02-09T01:54:34.340Z,13.50
2023-02-09T01:57:09.953Z,12.70
2023-02-09T01:59:40.194Z,11.48
2023-02-09T02:02:08.697Z,13.20
2023-02-09T02:04:36.876Z,13.45
2023-02-09T02:07:12.570Z,13.57
2023-02-09T02:09:40.073Z,13.05
2023-02-09T02:12:07.135Z,12.52
2023-02-09T02:14:37.769Z,13.20
2023-02-09T02:17:24.613Z,11.85
2023-02-09T02:19:51.407Z,13.63
2023-02-09T02:22:36.449Z,13.52
2023-02-09T02:25:21.930Z,13.95
2023-02-09T02:28:23.623Z,13.93
2023-02-09T02:31:17.969Z,13.90
2023-02-09T02:33:48.402Z,13.85
2023-02-09T02:36:27.272Z,13.07
2023-02-09T02:39:18.089Z,11.63
2023-02-09T02:42:35.055Z,13.30
2023-02-09T02:45:11.139Z,12.73
2023-02-09T02:47:42.416Z,13.07
2023-02-09T02:50:14.989Z,13.85
2023-02-09T02:52:46.185Z,12.65
2023-02-09T02:55:17.099Z,13.32
2023-02-09T02:57:48.449Z,13.32
2023-02-09T03:00:31.950Z,14.07
2023-02-09T03:03:13.832Z,14.23
2023-02-09T03:05:42.750Z,13.80
2023-02-09T03:08:09.720Z,14.57
2023-02-09T03:10:39.764Z,13.63
2023-02-09T03:13:08.035Z,13.73
2023-02-09T03:16:05.591Z,13.32
2023-02-09T03:18:43.540Z,14.27
2023-02-09T03:21:43.555Z,13.07
2023-02-09T03:24:24.935Z,13.27
2023-02-09T03:27:00.876Z,13.32
2023-02-09T03:29:28.729Z,12.80
2023-02-09T03:31:56.207Z,12.57
2023-02-09T03:34:23.105Z,13.43
2023-02-09T03:36:53.786Z,13.10
2023-02-09T03:39:20.630Z,12.85
2023-02-09T03:41:47.629Z,13.65
2023-02-09T03:44:27.286Z,12.88
2023-02-09T03:47:08.462Z,13.25
2023-02-09T03:49:39.326Z,13.98
2023-02-09T03:52:11.488Z,12.90
2023-02-09T03:54:38.491Z,13.95
2023-02-09T03:57:06.516Z,14.38
2023-02-09T03:59:37.579Z,14.40
2023-02-09T04:02:07.496Z,14.27
2023-02-09T04:04:34.562Z,13.75
2023-02-09T04:07:01.554Z,12.10
2023-02-09T04:09:28.854Z,13.60
2023-02-09T04:11:56.300Z,13.77
2023-02-09T04:14:23.268Z,13.25
2023-02-09T04:16:50.203Z,13.75
2023-02-09T04:19:17.052Z,12.25
2023-02-09T04:21:44.481Z,13.07
2023-02-09T04:24:11.937Z,13.55
2023-02-09T04:26:38.845Z,13.57
2023-02-09T04:29:06.116Z,12.05
2023-02-09T04:31:34.874Z,13.57
2023-02-09T04:34:01.969Z,12.63
2023-02-09T04:36:29.145Z,12.60
2023-02-09T04:38:56.231Z,13.43
2023-02-09T04:41:23.228Z,13.35
2023-02-09T04:43:50.228Z,11.98
2023-02-09T04:46:18.383Z,13.70
2023-02-09T04:48:46.165Z,13.25
2023-02-09T04:51:13.831Z,13.25
2023-02-09T04:53:40.763Z,12.05
2023-02-09T04:56:08.446Z,11.40
2023-02-09T04:58:54.191Z,13.07
2023-02-09T05:01:23.924Z,11.27
2023-02-09T05:03:51.474Z,12.88
2023-02-09T05:06:19.234Z,12.05
2023-02-09T05:08:46.387Z,12.43
2023-02-09T05:11:13.352Z,11.43
2023-02-09T05:13:40.339Z,12.02
2023-02-09T05:16:08.467Z,12.45
2023-02-09T05:18:35.874Z,10.90
2023-02-09T05:21:03.331Z,12.32
2023-02-09T05:23:30.553Z,11.40
2023-02-09T05:25:57.587Z,10.73
2023-02-09T05:28:25.260Z,11.70
2023-02-09T05:30:54.026Z,11.45
2023-02-09T05:33:25.676Z,11.55
2023-02-09T05:35:55.808Z,11.23
2023-02-09T05:40:49.902Z,12.68
2023-02-09T05:43:17.214Z,13.07
2023-02-09T05:45:45.015Z,11.70
2023-02-09T05:48:12.313Z,11.10
2023-02-09T05:50:39.579Z,13.02
2023-02-09T05:53:09.628Z,11.32
2023-02-09T05:55:37.045Z,12.80
2023-02-09T05:58:04.018Z,13.40
2023-02-09T06:00:31.313Z,11.10
2023-02-09T06:02:58.790Z,12.13
2023-02-09T06:05:26.454Z,12.40
2023-02-09T06:07:53.956Z,13.05
2023-02-09T06:10:21.003Z,11.68
2023-02-09T06:12:48.261Z,11.18
2023-02-09T06:15:18.741Z,11.13
2023-02-09T06:17:46.494Z,10.95
2023-02-09T06:20:13.530Z,11.40
2023-02-09T06:22:40.579Z,11.55
2023-02-09T06:25:07.808Z,10.88
2023-02-09T06:27:34.738Z,10.95
2023-02-09T06:30:02.040Z,12.13
2023-02-09T06:32:28.917Z,10.85
2023-02-09T06:34:56.351Z,11.68
2023-02-09T06:37:23.424Z,10.27
2023-02-09T06:39:50.650Z,10.23
2023-02-09T06:42:17.573Z,11.18
2023-02-09T06:44:44.533Z,10.25
2023-02-09T06:47:11.426Z,11.82
2023-02-09T06:49:38.288Z,12.13
2023-02-09T06:52:05.613Z,13.00
2023-02-09T06:54:32.768Z,11.23
2023-02-09T06:56:59.777Z,11.73
2023-02-09T06:59:26.651Z,12.00
2023-02-09T07:01:54.984Z,12.38
2023-02-09T07:04:22.435Z,10.98
2023-02-09T07:06:49.396Z,10.98
2023-02-09T07:09:16.243Z,13.05
2023-02-09T07:11:43.813Z,13.95
2023-02-09T07:14:10.870Z,13.60
2023-02-09T07:16:37.740Z,13.48
2023-02-09T07:19:04.808Z,12.82
2023-02-09T07:21:31.702Z,12.60
2023-02-09T07:23:58.590Z,11.95
2023-02-09T07:26:25.632Z,11.80
2023-02-09T07:28:52.887Z,12.75
2023-02-09T07:31:19.941Z,12.70
2023-02-09T07:33:47.124Z,12.23
2023-02-09T07:36:15.537Z,11.48
2023-02-09T07:38:42.838Z,11.23
2023-02-09T07:41:51.184Z,11.18
2023-02-09T07:48:06.738Z,12.10
2023-02-09T07:50:33.555Z,11.23
2023-02-09T07:53:00.893Z,10.00
2023-02-09T07:55:27.940Z,11.00
2023-02-09T07:57:55.519Z,11.55
2023-02-09T08:00:22.567Z,11.50
2023-02-09T08:02:50.115Z,10.13
2023-02-09T08:05:58.327Z,11.95
2023-02-09T08:08:25.259Z,10.35
2023-02-09T08:10:54.678Z,11.30
2023-02-09T08:13:22.201Z,11.48
2023-02-09T08:15:55.607Z,10.63
2023-02-09T08:18:27.841Z,11.18
2023-02-09T08:20:55.062Z,11.63
2023-02-09T08:23:34.229Z,11.35
2023-02-09T08:26:06.836Z,10.32
2023-02-09T08:28:43.606Z,11.80
2023-02-09T08:31:11.945Z,13.32
2023-02-09T08:33:38.891Z,10.95
2023-02-09T08:36:06.152Z,11.60
2023-02-09T08:38:34.794Z,10.60
2023-02-09T08:41:06.591Z,11.05
2023-02-09T08:43:33.732Z,11.05
2023-02-09T08:46:05.838Z,9.80
2023-02-09T08:48:35.829Z,9.40
2023-02-09T08:51:03.456Z,10.02
2023-02-09T08:53:30.997Z,10.57
2023-02-09T08:55:57.928Z,11.23
2023-02-09T08:58:25.473Z,11.10
2023-02-09T09:00:59.925Z,10.57
2023-02-09T09:03:30.095Z,10.27
2023-02-09T09:06:02.242Z,10.48
2023-02-09T09:08:30.154Z,10.13
2023-02-09T09:10:57.316Z,9.82
2023-02-09T09:13:24.916Z,10.32
2023-02-09T09:15:54.039Z,10.38
2023-02-09T09:18:21.677Z,10.23
2023-02-09T09:20:49.299Z,12.05
2023-02-09T09:23:16.170Z,11.07
2023-02-09T09:25:43.346Z,10.23
2023-02-09T09:28:10.879Z,10.45
2023-02-09T09:30:38.633Z,9.70
2023-02-09T09:33:05.577Z,10.07
2023-02-09T09:35:32.542Z,10.93
2023-02-09T09:38:00.858Z,10.60
2023-02-09T09:40:31.661Z,11.02
2023-02-09T09:43:01.253Z,11.10
2023-02-09T09:45:30.224Z,9.52
2023-02-09T09:47:57.423Z,10.25
2023-02-09T09:50:38.305Z,9.65
2023-02-09T09:53:18.286Z,9.60
2023-02-09T09:55:46.202Z,10.82
2023-02-09T09:58:18.925Z,10.57
2023-02-09T10:00:45.961Z,10.77
2023-02-09T10:03:21.804Z,10.35
2023-02-09T10:05:55.407Z,9.30
2023-02-09T10:08:34.336Z,9.85
2023-02-09T10:11:04.781Z,10.30
2023-02-09T10:13:39.896Z,10.80
2023-02-09T10:16:21.264Z,11.80
2023-02-09T10:19:21.572Z,11.18
2023-02-09T10:21:49.150Z,9.80
2023-02-09T10:24:21.345Z,10.70
2023-02-09T10:27:05.423Z,10.38
2023-02-09T10:29:32.347Z,10.32
2023-02-09T10:32:09.379Z,10.07
2023-02-09T10:34:40.962Z,12.18
2023-02-09T10:37:34.689Z,9.63
2023-02-09T10:40:19.386Z,10.77
2023-02-09T10:42:54.113Z,10.27
2023-02-09T10:45:28.503Z,11.50
2023-02-09T10:48:19.809Z,9.32
2023-02-09T10:50:59.097Z,9.73
2023-02-09T10:53:31.346Z,10.77
2023-02-09T10:56:17.951Z,10.15
2023-02-09T10:59:02.911Z,10.88
2023-02-09T11:01:34.637Z,10.73
2023-02-09T11:04:03.229Z,10.57
2023-02-09T11:07:01.733Z,10.57
2023-02-09T11:09:33.616Z,11.65
2023-02-09T11:12:01.012Z,10.05
2023-02-09T11:14:28.762Z,10.98
2023-02-09T11:17:14.563Z,10.70
2023-02-09T11:20:05.984Z,10.25
2023-02-09T11:22:54.171Z,10.98
2023-02-09T11:25:59.152Z,10.10
2023-02-09T11:28:39.316Z,11.13
2023-02-09T11:31:41.201Z,10.45
2023-02-09T11:34:26.317Z,8.95
2023-02-09T11:36:58.873Z,10.52
2023-02-09T11:39:43.453Z,10.50
2023-02-09T11:42:37.763Z,10.60
2023-02-09T11:45:17.620Z,11.27
2023-02-09T11:48:10.104Z,10.73
2023-02-09T11:50:55.510Z,10.45
2023-02-09T11:53:28.472Z,11.20
2023-02-09T11:56:02.102Z,11.43
2023-02-09T11:58:55.332Z,11.20
2023-02-09T12:01:46.424Z,11.13
2023-02-09T12:04:45.359Z,11.15
2023-02-09T12:10:04.869Z,10.65
2023-02-09T12:15:26.918Z,11.60
2023-02-09T12:17:58.991Z,13.27
2023-02-09T12:20:28.049Z,11.13
2023-02-09T12:23:26.068Z,10.57
2023-02-09T12:25:53.100Z,10.57
2023-02-09T12:28:35.188Z,11.57
2023-02-09T12:31:05.005Z,11.45
2023-02-09T12:33:34.133Z,9.98
2023-02-09T12:36:14.522Z,11.23
2023-02-09T12:38:56.599Z,9.85
2023-02-09T12:41:29.876Z,10.57
2023-02-09T12:49:27.645Z,10.35
2023-02-09T12:52:00.369Z,10.90
2023-02-09T12:55:08.281Z,13.32
2023-02-09T12:57:51.280Z,13.53
2023-02-09T13:00:18.872Z,12.82
2023-02-09T13:02:56.591Z,12.77
2023-02-09T13:05:26.422Z,12.40
2023-02-09T13:08:18.380Z,12.47
2023-02-09T13:11:00.773Z,13.23
2023-02-09T13:13:48.237Z,12.13
2023-02-09T13:16:24.404Z,11.20
2023-02-09T13:19:00.390Z,10.95
2023-02-09T13:22:03.260Z,10.48
2023-02-09T13:24:44.154Z,10.77
2023-02-09T13:27:25.662Z,11.32
2023-02-09T13:29:58.142Z,10.88
2023-02-09T13:32:35.122Z,10.20
2023-02-09T13:35:29.135Z,10.20
2023-02-09T13:38:00.194Z,12.00
2023-02-09T13:40:33.611Z,10.80
2023-02-09T13:43:17.332Z,12.23
2023-02-09T13:45:53.261Z,11.65
2023-02-09T13:48:32.286Z,11.50
2023-02-09T13:51:02.515Z,11.73
2023-02-09T13:53:31.590Z,11.20
2023-02-09T13:56:00.515Z,12.18
2023-02-09T13:58:36.133Z,11.40
2023-02-09T14:01:14.472Z,11.75
2023-02-09T14:03:58.987Z,10.07
2023-02-09T14:06:50.932Z,11.57
2023-02-09T14:09:26.473Z,11.10
2023-02-09T14:11:58.299Z,9.55
2023-02-09T14:14:28.299Z,8.93
2023-02-09T14:17:25.317Z,10.55
2023-02-09T14:19:54.081Z,11.68
2023-02-09T14:22:33.874Z,9.73
2023-02-09T14:25:01.140Z,11.77
2023-02-09T14:27:32.993Z,11.73
2023-02-09T14:30:01.323Z,11.93
2023-02-09T14:32:35.152Z,12.13
2023-02-09T14:35:26.009Z,11.80
2023-02-09T14:37:54.965Z,11.83
2023-02-09T14:40:24.689Z,12.00
2023-02-09T14:43:25.001Z,12.43
2023-02-09T14:46:00.997Z,12.77
2023-02-09T14:48:29.660Z,12.27
2023-02-09T14:50:59.677Z,12.68
2023-02-09T14:53:30.017Z,12.63
2023-02-09T14:55:58.060Z,12.75
2023-02-09T14:58:28.187Z,13.38
2023-02-09T15:00:57.797Z,13.07
2023-02-09T15:03:24.748Z,13.93
2023-02-09T15:05:55.825Z,14.35
2023-02-09T15:08:25.668Z,15.37
2023-02-09T15:10:56.439Z,16.00
2023-02-09T15:13:23.865Z,14.67
2023-02-09T15:15:50.795Z,14.73
2023-02-09T15:18:26.869Z,14.95
2023-02-09T15:20:54.314Z,14.27
2023-02-09T15:23:21.509Z,14.57
2023-02-09T15:25:48.744Z,14.93
2023-02-09T15:28:28.468Z,13.98
2023-02-09T15:30:57.426Z,15.25
2023-02-09T15:33:28.760Z,14.48
2023-02-09T15:35:59.208Z,14.63
2023-02-09T15:38:27.683Z,13.88
2023-02-09T15:41:13.415Z,14.23
2023-02-09T15:43:58.954Z,14.60
2023-02-09T15:46:44.727Z,15.13
2023-02-09T15:49:13.320Z,14.90
2023-02-09T15:51:41.123Z,13.65
2023-02-09T15:54:20.509Z,15.00
2023-02-09T15:56:47.998Z,14.25
2023-02-09T15:59:23.022Z,14.23
2023-02-09T16:01:50.740Z,14.68
2023-02-09T16:04:18.169Z,14.57
2023-02-09T16:06:50.634Z,14.27
2023-02-09T16:09:29.023Z,14.65
2023-02-09T16:11:56.249Z,14.30
2023-02-09T16:14:25.358Z,14.70
2023-02-09T16:16:52.939Z,14.48
2023-02-09T16:19:20.618Z,14.43
2023-02-09T16:21:51.371Z,14.93
2023-02-09T16:24:27.043Z,14.55
2023-02-09T16:26:54.029Z,14.77
2023-02-09T16:29:20.985Z,15.45
2023-02-09T16:31:48.816Z,15.95
2023-02-09T16:34:15.841Z,15.25
2023-02-09T16:36:43.264Z,15.90
2023-02-09T16:39:21.269Z,16.15
2023-02-09T16:41:50.782Z,16.42
2023-02-09T16:44:26.406Z,16.25
2023-02-09T16:46:55.390Z,16.75
2023-02-09T16:49:43.882Z,17.30
2023-02-09T16:52:16.095Z,16.57
2023-02-09T16:54:52.735Z,16.05
2023-02-09T16:57:23.138Z,15.63
2023-02-09T16:59:51.269Z,16.00
2023-02-09T17:02:34.948Z,16.00
2023-02-09T17:05:08.134Z,16.42
2023-02-09T17:07:52.303Z,16.98
2023-02-09T17:10:23.377Z,19.00
2023-02-09T17:12:53.471Z,20.60
2023-02-09T17:15:30.079Z,21.75
2023-02-09T17:18:05.374Z,21.20
2023-02-09T17:20:37.779Z,20.07
2023-02-09T17:23:04.780Z,20.00
2023-02-09T17:25:31.901Z,22.05
2023-02-09T17:27:59.290Z,23.40
2023-02-09T17:30:26.235Z,22.52
2023-02-09T17:33:00.282Z,22.08
2023-02-09T17:35:52.907Z,22.55
2023-02-09T17:38:31.528Z,20.38
2023-02-09T17:41:01.558Z,21.47
2023-02-09T17:43:28.988Z,20.17
2023-02-09T17:45:56.297Z,19.83
2023-02-09T17:48:23.664Z,19.52
2023-02-09T17:50:52.976Z,19.63
2023-02-09T17:53:25.776Z,19.38
2023-02-09T17:55:54.172Z,18.80
2023-02-09T17:58:21.067Z,20.95
2023-02-09T18:00:48.127Z,19.58
2023-02-09T18:03:17.836Z,21.13
2023-02-09T18:05:49.039Z,22.25
2023-02-09T18:08:15.961Z,21.58
2023-02-09T18:10:43.339Z,20.98
2023-02-09T18:13:17.232Z,20.70
2023-02-09T18:15:44.903Z,21.65
2023-02-09T18:18:11.917Z,21.35
2023-02-09T18:20:38.817Z,21.30
2023-02-09T18:23:05.821Z,21.13
2023-02-09T18:25:39.598Z,20.90
2023-02-09T18:28:07.744Z,21.67
2023-02-09T18:30:39.455Z,23.00
2023-02-09T18:33:07.295Z,21.90
2023-02-09T18:35:36.604Z,21.33
2023-02-09T18:38:05.627Z,21.67
2023-02-09T18:40:32.764Z,21.65
2023-02-09T18:43:01.243Z,21.87
2023-02-09T18:45:30.530Z,22.67
2023-02-09T18:47:58.038Z,22.65
2023-02-09T18:50:28.244Z,23.63
2023-02-09T18:52:58.278Z,24.13
2023-02-09T18:55:29.313Z,24.80
2023-02-09T18:58:01.261Z,24.35
2023-02-09T19:00:28.796Z,21.60
2023-02-09T19:03:00.094Z,20.15
2023-02-09T19:05:29.567Z,18.65
2023-02-09T19:07:57.118Z,17.65
2023-02-09T19:10:24.108Z,18.23
2023-02-09T19:12:51.572Z,18.10
2023-02-09T19:15:22.492Z,19.30
2023-02-09T19:17:49.680Z,18.10
2023-02-09T19:20:19.443Z,19.15
2023-02-09T19:22:53.560Z,18.52
2023-02-09T19:25:24.643Z,19.98
2023-02-09T19:27:53.291Z,20.10
2023-02-09T19:30:24.866Z,18.55
2023-02-09T19:32:53.278Z,20.48
2023-02-09T19:35:22.570Z,19.88
2023-02-09T19:37:58.098Z,21.33
2023-02-09T19:40:36.052Z,23.80
2023-02-09T19:43:04.667Z,27.73
2023-02-09T19:45:36.610Z,28.13
2023-02-09T19:48:07.907Z,29.65
2023-02-09T19:50:39.164Z,27.98
2023-02-09T19:53:07.374Z,27.38
2023-02-09T19:55:34.361Z,28.63
2023-02-09T19:58:01.290Z,25.98
2023-02-09T20:00:28.200Z,25.00
2023-02-09T20:02:55.231Z,25.73
2023-02-09T20:05:22.097Z,24.73
2023-02-09T20:07:49.169Z,25.25
2023-02-09T20:10:16.028Z,23.83
2023-02-09T20:15:14.815Z,21.88
2023-02-09T20:17:41.862Z,20.50
2023-02-09T20:20:09.058Z,19.50
2023-02-09T20:22:36.812Z,21.80
2023-02-09T20:25:04.494Z,19.92
2023-02-09T20:27:31.423Z,19.70
2023-02-09T20:30:01.401Z,20.15
2023-02-09T20:32:29.120Z,20.23
2023-02-09T20:34:56.467Z,19.58
2023-02-09T20:37:23.302Z,19.17
2023-02-09T20:39:50.532Z,19.98
2023-02-09T20:42:36.300Z,19.63
2023-02-09T20:45:21.844Z,21.20
2023-02-09T20:47:48.752Z,20.70
2023-02-09T20:50:17.814Z,21.07
2023-02-09T20:52:45.831Z,19.65
2023-02-09T20:55:13.278Z,19.77
2023-02-09T20:57:40.215Z,21.02
2023-02-09T21:00:09.562Z,20.02
2023-02-09T21:02:37.798Z,20.13
2023-02-09T21:05:05.431Z,19.38
2023-02-09T21:07:33.583Z,21.88
2023-02-09T21:10:00.706Z,23.58
2023-02-09T21:12:27.904Z,22.45
2023-02-09T21:14:56.532Z,22.13
2023-02-09T21:17:23.860Z,20.90
2023-02-09T21:19:50.793Z,21.48
2023-02-09T21:22:17.710Z,19.93
2023-02-09T21:24:45.068Z,19.88
2023-02-09T21:27:13.391Z,20.80
2023-02-09T21:29:40.484Z,19.48
2023-02-09T21:32:08.028Z,19.35
2023-02-09T21:34:35.872Z,19.63
2023-02-09T21:37:02.890Z,21.23
2023-02-09T21:39:30.119Z,20.45
2023-02-09T21:42:15.525Z,20.93
2023-02-09T21:44:42.421Z,20.17
2023-02-09T21:47:10.557Z,19.97
2023-02-09T21:49:37.392Z,21.17
2023-02-09T21:52:04.890Z,20.85
2023-02-09T21:54:33.788Z,21.13
2023-02-09T21:57:01.790Z,20.93
2023-02-09T21:59:29.530Z,20.13
2023-02-09T22:01:56.518Z,21.25
2023-02-09T22:04:23.735Z,21.33
2023-02-09T22:06:50.735Z,20.80
2023-02-09T22:09:20.040Z,20.33
2023-02-09T22:11:46.920Z,20.23
2023-02-09T22:14:13.878Z,20.42
2023-02-09T22:16:40.804Z,19.90
2023-02-09T22:19:07.806Z,21.48
2023-02-09T22:21:34.740Z,21.00
2023-02-09T22:24:01.625Z,20.95
2023-02-09T22:26:28.447Z,20.27
2023-02-09T22:28:55.291Z,21.27
2023-02-09T22:31:22.489Z,21.27
2023-02-09T22:33:54.080Z,21.00
2023-02-09T22:36:21.784Z,20.95
2023-02-09T22:38:48.793Z,21.17
2023-02-09T22:41:21.948Z,21.35
2023-02-09T22:43:50.747Z,20.05
2023-02-09T22:46:18.106Z,20.87
2023-02-09T22:48:49.413Z,21.70
2023-02-09T22:51:17.716Z,20.60
2023-02-09T22:53:45.200Z,20.60
2023-02-09T22:56:12.772Z,21.02
2023-02-09T22:58:40.424Z,21.77
2023-02-09T23:01:07.684Z,21.55
2023-02-09T23:03:34.608Z,21.67
2023-02-09T23:06:07.325Z,22.33
2023-02-09T23:08:34.488Z,20.50
2023-02-09T23:11:10.022Z,20.58
2023-02-09T23:13:37.567Z,20.52
2023-02-09T23:16:08.745Z,20.73
2023-02-09T23:18:36.061Z,22.35
2023-02-09T23:21:04.587Z,21.25
2023-02-09T23:23:31.593Z,23.10
2023-02-09T23:25:58.425Z,23.23
2023-02-09T23:28:25.590Z,24.90
2023-02-09T23:30:52.442Z,26.27
2023-02-09T23:33:19.452Z,25.08
2023-02-09T23:35:46.496Z,25.50
2023-02-09T23:38:13.525Z,25.42
2023-02-09T23:40:41.093Z,26.35
2023-02-09T23:43:07.914Z,25.17
2023-02-09T23:45:34.759Z,26.10
2023-02-09T23:48:01.724Z,26.75
2023-02-09T23:50:28.558Z,26.25
2023-02-09T23:52:55.444Z,26.02
2023-02-09T23:55:22.340Z,26.23
2023-02-09T23:57:49.180Z,27.25
